createdAt,value
2018-02-05T00:00:33.468Z,0.00
2018-02-05T00:01:33.494Z,0.00
2018-02-05T00:02:33.522Z,0.00
2018-02-05T00:03:33.550Z,0.00
2018-02-05T00:04:33.577Z,0.00
2018-02-05T00:05:33.604Z,0.00
2018-02-05T00:06:33.631Z,0.00
2018-02-05T00:07:33.659Z,0.00
2018-02-05T00:08:33.687Z,0.00
2018-02-05T00:09:33.714Z,0.00
2018-02-05T00:10:33.741Z,0.00
2018-02-05T00:11:33.791Z,0.00
2018-02-05T00:12:33.796Z,0.00
2018-02-05T00:13:33.831Z,0.00
2018-02-05T00:14:33.851Z,0.00
2018-02-05T00:15:33.880Z,0.00
2018-02-05T00:16:33.906Z,0.00
2018-02-05T00:17:33.933Z,0.00
2018-02-05T00:18:33.960Z,0.00
2018-02-05T00:19:34.014Z,0.00
2018-02-05T00:20:34.016Z,0.00
2018-02-05T00:21:34.043Z,0.00
2018-02-05T00:22:34.070Z,0.00
2018-02-05T00:23:34.120Z,0.00
2018-02-05T00:24:34.126Z,0.00
2018-02-05T00:25:34.152Z,0.00
2018-02-05T00:26:34.180Z,0.00
2018-02-05T00:27:34.208Z,0.00
2018-02-05T00:28:34.235Z,0.00
2018-02-05T00:29:34.262Z,0.00
2018-02-05T00:30:34.290Z,0.00
2018-02-05T00:31:34.317Z,0.00
2018-02-05T00:32:34.364Z,0.00
2018-02-05T00:33:34.372Z,0.00
2018-02-05T00:34:34.399Z,0.00
2018-02-05T00:35:34.445Z,0.00
2018-02-05T00:36:34.454Z,0.00
2018-02-05T00:37:34.481Z,0.00
2018-02-05T00:38:34.509Z,0.00
2018-02-05T00:39:34.537Z,0.00
2018-02-05T00:40:34.564Z,0.00
2018-02-05T00:41:34.590Z,0.00
2018-02-05T00:42:34.619Z,0.00
2018-02-05T00:43:34.646Z,0.00
2018-02-05T00:44:34.674Z,0.00
2018-02-05T00:45:34.727Z,0.00
2018-02-05T00:46:34.768Z,0.00
2018-02-05T00:47:34.755Z,0.00
2018-02-05T00:48:34.783Z,0.00
2018-02-05T00:49:34.810Z,0.00
2018-02-05T00:50:34.838Z,0.00
2018-02-05T00:51:34.868Z,0.00
2018-02-05T00:52:34.893Z,0.00
2018-02-05T00:53:34.919Z,0.00
2018-02-05T00:54:34.947Z,0.00
2018-02-05T00:55:34.975Z,0.00
2018-02-05T00:56:35.037Z,0.00
2018-02-05T00:57:35.029Z,0.00
2018-02-05T00:58:35.057Z,0.00
2018-02-05T00:59:35.085Z,0.00
2018-02-05T01:00:35.112Z,0.00
2018-02-05T01:01:35.140Z,0.00
2018-02-05T01:02:35.167Z,0.00
2018-02-05T01:03:35.194Z,0.00
2018-02-05T01:04:35.222Z,0.00
2018-02-05T01:05:35.251Z,0.00
2018-02-05T01:06:35.276Z,0.00
2018-02-05T01:07:35.304Z,0.00
2018-02-05T01:08:35.336Z,0.00
2018-02-05T01:09:35.359Z,0.00
2018-02-05T01:10:35.386Z,0.00
2018-02-05T01:11:35.413Z,0.00
2018-02-05T01:12:35.441Z,0.00
2018-02-05T01:13:35.468Z,0.00
2018-02-05T01:14:35.496Z,0.00
2018-02-05T01:15:35.523Z,0.00
2018-02-05T01:16:35.551Z,0.00
2018-02-05T01:17:35.578Z,0.00
2018-02-05T01:18:35.605Z,0.00
2018-02-05T01:19:35.633Z,0.00
2018-02-05T01:20:35.661Z,0.00
2018-02-05T01:21:35.687Z,0.00
2018-02-05T01:22:35.715Z,0.00
2018-02-05T01:23:35.742Z,0.00
2018-02-05T01:24:35.770Z,0.00
2018-02-05T01:25:35.796Z,0.00
2018-02-05T01:26:35.825Z,0.00
2018-02-05T01:27:35.852Z,0.00
2018-02-05T01:28:35.881Z,0.00
2018-02-05T01:29:35.908Z,0.00
2018-02-05T01:30:35.934Z,0.00
2018-02-05T01:31:35.963Z,0.00
2018-02-05T01:32:35.990Z,0.00
2018-02-05T01:33:36.028Z,0.00
2018-02-05T01:34:36.047Z,0.00
2018-02-05T01:35:36.071Z,0.00
2018-02-05T01:36:36.100Z,0.00
2018-02-05T01:37:36.125Z,0.00
2018-02-05T01:38:36.153Z,0.00
2018-02-05T01:39:36.194Z,0.00
2018-02-05T01:40:36.208Z,0.00
2018-02-05T01:41:36.235Z,0.00
2018-02-05T01:42:36.263Z,0.00
2018-02-05T01:43:36.311Z,0.00
2018-02-05T01:44:36.318Z,0.00
2018-02-05T01:45:36.351Z,0.00
2018-02-05T01:46:36.394Z,0.00
2018-02-05T01:47:36.400Z,0.00
2018-02-05T01:48:36.428Z,0.00
2018-02-05T01:49:36.454Z,0.00
2018-02-05T01:50:36.482Z,0.00
2018-02-05T01:51:36.509Z,0.00
2018-02-05T01:52:36.540Z,0.00
2018-02-05T01:53:36.565Z,0.00
2018-02-05T01:54:36.591Z,0.00
2018-02-05T01:55:36.618Z,0.00
2018-02-05T01:56:36.646Z,0.00
2018-02-05T01:57:36.674Z,0.00
2018-02-05T01:58:36.701Z,0.00
2018-02-05T01:59:36.729Z,0.00
2018-02-05T02:00:36.774Z,0.00
2018-02-05T02:01:36.784Z,0.00
2018-02-05T02:02:36.811Z,0.00
2018-02-05T02:03:36.838Z,0.00
2018-02-05T02:04:36.866Z,0.00
2018-02-05T02:05:36.893Z,0.00
2018-02-05T02:06:36.920Z,0.00
2018-02-05T02:07:36.947Z,0.00
2018-02-05T02:08:36.975Z,0.00
2018-02-05T02:09:37.002Z,0.00
2018-02-05T02:10:37.030Z,0.00
2018-02-05T02:11:37.058Z,0.00
2018-02-05T02:12:37.085Z,0.00
2018-02-05T02:13:37.111Z,0.00
2018-02-05T02:14:37.140Z,0.00
2018-02-05T02:15:37.167Z,0.00
2018-02-05T02:16:37.197Z,0.00
2018-02-05T02:17:37.221Z,0.00
2018-02-05T02:18:37.249Z,0.00
2018-02-05T02:19:37.276Z,0.00
2018-02-05T02:20:37.304Z,0.00
2018-02-05T02:21:37.330Z,0.00
2018-02-05T02:22:37.358Z,0.00
2018-02-05T02:23:37.386Z,0.00
2018-02-05T02:24:37.414Z,0.00
2018-02-05T02:25:37.440Z,0.00
2018-02-05T02:26:37.471Z,0.00
2018-02-05T02:27:37.524Z,0.00
2018-02-05T02:28:37.523Z,0.00
2018-02-05T02:29:37.549Z,0.00
2018-02-05T02:30:37.578Z,0.00
2018-02-05T02:31:37.608Z,0.00
2018-02-05T02:32:37.633Z,0.00
2018-02-05T02:33:37.660Z,0.00
2018-02-05T02:34:37.686Z,0.00
2018-02-05T02:35:37.714Z,0.00
2018-02-05T02:36:37.742Z,0.00
2018-02-05T02:37:37.769Z,0.00
2018-02-05T02:38:37.797Z,0.00
2018-02-05T02:39:37.824Z,0.00
2018-02-05T02:40:37.852Z,0.00
2018-02-05T02:41:37.879Z,0.00
2018-02-05T02:42:37.907Z,0.00
2018-02-05T02:43:37.934Z,0.00
2018-02-05T02:44:37.961Z,0.00
2018-02-05T02:45:37.988Z,0.00
2018-02-05T02:46:38.016Z,0.00
2018-02-05T02:47:38.043Z,0.00
2018-02-05T02:48:38.071Z,0.00
2018-02-05T02:49:38.112Z,0.00
2018-02-05T02:50:38.158Z,0.00
2018-02-05T02:51:38.153Z,0.00
2018-02-05T02:52:38.180Z,0.00
2018-02-05T02:53:38.207Z,0.00
2018-02-05T02:54:38.235Z,0.00
2018-02-05T02:55:38.262Z,0.00
2018-02-05T02:56:38.328Z,0.00
2018-02-05T02:57:38.316Z,0.00
2018-02-05T02:58:38.345Z,0.00
2018-02-05T02:59:38.372Z,0.00
2018-02-05T03:00:38.400Z,0.00
2018-02-05T03:01:38.427Z,0.00
2018-02-05T03:02:38.454Z,0.00
2018-02-05T03:03:38.482Z,0.00
2018-02-05T03:04:38.516Z,0.00
2018-02-05T03:05:38.536Z,0.00
2018-02-05T03:06:38.564Z,0.00
2018-02-05T03:07:38.618Z,0.00
2018-02-05T03:08:38.619Z,0.00
2018-02-05T03:09:38.646Z,0.00
2018-02-05T03:10:38.674Z,0.00
2018-02-05T03:11:38.745Z,0.00
2018-02-05T03:12:38.729Z,0.00
2018-02-05T03:13:38.755Z,0.00
2018-02-05T03:14:38.782Z,0.00
2018-02-05T03:15:38.810Z,0.00
2018-02-05T03:16:38.838Z,0.00
2018-02-05T03:17:38.868Z,0.00
2018-02-05T03:18:38.892Z,0.00
2018-02-05T03:19:38.920Z,0.00
2018-02-05T03:20:38.948Z,0.00
2018-02-05T03:21:39.019Z,0.00
2018-02-05T03:22:39.002Z,0.00
2018-02-05T03:23:39.030Z,0.00
2018-02-05T03:24:39.089Z,0.00
2018-02-05T03:25:39.085Z,0.00
2018-02-05T03:26:39.111Z,0.00
2018-02-05T03:27:39.141Z,0.00
2018-02-05T03:28:39.167Z,0.00
2018-02-05T03:29:39.194Z,0.00
2018-02-05T03:30:39.244Z,0.00
2018-02-05T03:31:39.250Z,0.00
2018-02-05T03:32:39.277Z,0.00
2018-02-05T03:33:39.312Z,0.00
2018-02-05T03:34:39.332Z,0.00
2018-02-05T03:35:39.363Z,0.00
2018-02-05T03:36:39.386Z,0.00
2018-02-05T03:37:39.413Z,0.00
2018-02-05T03:38:39.441Z,0.00
2018-02-05T03:39:39.468Z,0.00
2018-02-05T03:40:39.496Z,0.00
2018-02-05T03:41:39.524Z,0.00
2018-02-05T03:42:39.551Z,0.00
2018-02-05T03:43:39.579Z,0.00
2018-02-05T03:44:39.606Z,0.00
2018-02-05T03:45:39.633Z,0.00
2018-02-05T03:46:39.661Z,0.00
2018-02-05T03:47:39.687Z,0.00
2018-02-05T03:48:39.716Z,0.00
2018-02-05T03:49:39.742Z,0.00
2018-02-05T03:50:39.770Z,0.00
2018-02-05T03:51:39.798Z,0.00
2018-02-05T03:52:39.826Z,0.00
2018-02-05T03:53:39.854Z,0.00
2018-02-05T03:54:39.880Z,0.00
2018-02-05T03:55:39.908Z,0.00
2018-02-05T03:56:39.936Z,0.00
2018-02-05T03:57:39.963Z,0.00
2018-02-05T03:58:39.990Z,0.00
2018-02-05T03:59:40.018Z,0.00
2018-02-05T04:00:40.046Z,0.00
2018-02-05T04:01:40.072Z,0.00
2018-02-05T04:02:40.101Z,0.00
2018-02-05T04:03:40.128Z,0.00
2018-02-05T04:04:40.160Z,0.00
2018-02-05T04:05:40.183Z,0.00
2018-02-05T04:06:40.209Z,0.00
2018-02-05T04:07:40.239Z,0.00
2018-02-05T04:08:40.265Z,0.00
2018-02-05T04:09:40.292Z,0.00
2018-02-05T04:10:40.340Z,0.00
2018-02-05T04:11:40.350Z,0.00
2018-02-05T04:12:40.375Z,0.00
2018-02-05T04:13:40.402Z,0.00
2018-02-05T04:14:40.456Z,0.00
2018-02-05T04:15:40.458Z,0.00
2018-02-05T04:16:40.485Z,0.00
2018-02-05T04:17:40.511Z,0.00
2018-02-05T04:18:40.542Z,0.00
2018-02-05T04:19:40.569Z,0.00
2018-02-05T04:20:40.595Z,0.00
2018-02-05T04:21:40.621Z,0.00
2018-02-05T04:22:40.651Z,0.00
2018-02-05T04:23:40.678Z,0.00
2018-02-05T04:24:40.708Z,0.00
2018-02-05T04:25:40.732Z,0.00
2018-02-05T04:26:40.760Z,0.00
2018-02-05T04:27:40.839Z,0.00
2018-02-05T04:28:40.817Z,0.00
2018-02-05T04:29:40.844Z,0.00
2018-02-05T04:30:40.870Z,0.00
2018-02-05T04:31:40.897Z,0.00
2018-02-05T04:32:40.925Z,0.00
2018-02-05T04:33:40.952Z,0.00
2018-02-05T04:34:40.980Z,0.00
2018-02-05T04:35:41.008Z,0.00
2018-02-05T04:36:41.035Z,0.00
2018-02-05T04:37:41.063Z,0.00
2018-02-05T04:38:41.090Z,0.00
2018-02-05T04:39:41.117Z,0.00
2018-02-05T04:40:41.145Z,0.00
2018-02-05T04:41:41.175Z,0.00
2018-02-05T04:42:41.200Z,0.00
2018-02-05T04:43:41.227Z,0.00
2018-02-05T04:44:41.255Z,0.00
2018-02-05T04:45:41.282Z,0.00
2018-02-05T04:46:41.315Z,0.00
2018-02-05T04:47:41.337Z,0.00
2018-02-05T04:48:41.366Z,0.00
2018-02-05T04:49:41.392Z,0.00
2018-02-05T04:50:41.420Z,0.00
2018-02-05T04:51:41.447Z,0.00
2018-02-05T04:52:41.475Z,0.00
2018-02-05T04:53:41.502Z,0.00
2018-02-05T04:54:41.530Z,0.00
2018-02-05T04:55:41.557Z,0.00
2018-02-05T04:56:41.585Z,0.00
2018-02-05T04:57:41.651Z,0.00
2018-02-05T04:58:41.668Z,0.00
2018-02-05T04:59:41.668Z,0.00
2018-02-05T05:00:41.695Z,0.00
2018-02-05T05:01:41.722Z,0.00
2018-02-05T05:02:41.749Z,0.00
2018-02-05T05:03:41.778Z,0.00
2018-02-05T05:04:41.809Z,0.00
2018-02-05T05:05:41.832Z,0.00
2018-02-05T05:06:41.879Z,0.00
2018-02-05T05:07:41.908Z,0.00
2018-02-05T05:08:41.914Z,0.00
2018-02-05T05:09:41.942Z,0.00
2018-02-05T05:10:41.970Z,0.00
2018-02-05T05:11:41.998Z,0.00
2018-02-05T05:12:42.025Z,0.00
2018-02-05T05:13:42.052Z,0.00
2018-02-05T05:14:42.080Z,0.00
2018-02-05T05:15:42.124Z,560.00
2018-02-05T05:16:42.135Z,552.00
2018-02-05T05:17:42.162Z,552.00
2018-02-05T05:18:42.190Z,548.00
2018-02-05T05:19:42.217Z,548.00
2018-02-05T05:20:42.250Z,544.00
2018-02-05T05:21:42.271Z,548.00
2018-02-05T05:22:42.299Z,548.00
2018-02-05T05:23:42.328Z,544.00
2018-02-05T05:24:42.355Z,544.00
2018-02-05T05:25:42.387Z,544.00
2018-02-05T05:26:42.440Z,544.00
2018-02-05T05:27:42.437Z,544.00
2018-02-05T05:28:42.487Z,544.00
2018-02-05T05:29:42.492Z,544.00
2018-02-05T05:30:42.521Z,544.00
2018-02-05T05:31:42.547Z,544.00
2018-02-05T05:32:42.574Z,544.00
2018-02-05T05:33:42.602Z,540.00
2018-02-05T05:34:42.629Z,540.00
2018-02-05T05:35:42.656Z,540.00
2018-02-05T05:36:42.685Z,540.00
2018-02-05T05:37:42.712Z,540.00
2018-02-05T05:38:42.742Z,540.00
2018-02-05T05:39:42.768Z,536.00
2018-02-05T05:40:42.799Z,536.00
2018-02-05T05:41:42.821Z,536.00
2018-02-05T05:42:42.850Z,536.00
2018-02-05T05:43:42.877Z,540.00
2018-02-05T05:44:42.907Z,540.00
2018-02-05T05:45:42.932Z,532.00
2018-02-05T05:46:42.960Z,536.00
2018-02-05T05:47:42.987Z,536.00
2018-02-05T05:48:43.019Z,536.00
2018-02-05T05:49:43.045Z,536.00
2018-02-05T05:50:43.070Z,536.00
2018-02-05T05:51:43.097Z,536.00
2018-02-05T05:52:43.132Z,536.00
2018-02-05T05:53:43.153Z,536.00
2018-02-05T05:54:43.215Z,532.00
2018-02-05T05:55:43.208Z,536.00
2018-02-05T05:56:43.236Z,532.00
2018-02-05T05:57:43.263Z,536.00
2018-02-05T05:58:43.291Z,536.00
2018-02-05T05:59:43.319Z,532.00
2018-02-05T06:00:43.347Z,536.00
2018-02-05T06:01:43.374Z,536.00
2018-02-05T06:02:43.403Z,536.00
2018-02-05T06:03:43.452Z,536.00
2018-02-05T06:04:43.457Z,536.00
2018-02-05T06:05:43.484Z,540.00
2018-02-05T06:06:43.514Z,540.00
2018-02-05T06:07:43.539Z,540.00
2018-02-05T06:08:43.567Z,540.00
2018-02-05T06:09:43.652Z,536.00
2018-02-05T06:10:43.622Z,540.00
2018-02-05T06:11:43.658Z,540.00
2018-02-05T06:12:43.677Z,544.00
2018-02-05T06:13:43.704Z,540.00
2018-02-05T06:14:43.767Z,540.00
2018-02-05T06:15:44.694Z,544.00
2018-02-05T06:16:43.788Z,544.00
2018-02-05T06:17:43.822Z,544.00
2018-02-05T06:18:43.843Z,544.00
2018-02-05T06:19:43.872Z,548.00
2018-02-05T06:20:43.899Z,544.00
2018-02-05T06:21:43.960Z,548.00
2018-02-05T06:22:43.954Z,552.00
2018-02-05T06:23:43.982Z,548.00
2018-02-05T06:24:44.011Z,552.00
2018-02-05T06:25:44.037Z,552.00
2018-02-05T06:26:44.065Z,552.00
2018-02-05T06:27:44.093Z,552.00
2018-02-05T06:28:44.120Z,556.00
2018-02-05T06:29:44.157Z,560.00
2018-02-05T06:30:44.175Z,556.00
2018-02-05T06:31:44.203Z,560.00
2018-02-05T06:32:44.231Z,560.00
2018-02-05T06:33:44.259Z,564.00
2018-02-05T06:34:44.286Z,564.00
2018-02-05T06:35:44.313Z,568.00
2018-02-05T06:36:44.341Z,568.00
2018-02-05T06:37:44.368Z,568.00
2018-02-05T06:38:44.396Z,572.00
2018-02-05T06:39:44.424Z,572.00
2018-02-05T06:40:44.452Z,576.00
2018-02-05T06:41:44.479Z,580.00
2018-02-05T06:42:44.507Z,580.00
2018-02-05T06:43:44.534Z,580.00
2018-02-05T06:44:44.563Z,588.00
2018-02-05T06:45:44.590Z,584.00
2018-02-05T06:46:44.617Z,588.00
2018-02-05T06:47:44.645Z,588.00
2018-02-05T06:48:44.679Z,592.00
2018-02-05T06:49:44.702Z,596.00
2018-02-05T06:50:44.728Z,596.00
2018-02-05T06:51:44.756Z,596.00
2018-02-05T06:52:44.786Z,600.00
2018-02-05T06:53:44.811Z,604.00
2018-02-05T06:54:44.838Z,604.00
2018-02-05T06:55:44.870Z,604.00
2018-02-05T06:56:44.897Z,604.00
2018-02-05T06:57:44.921Z,616.00
2018-02-05T06:58:44.960Z,620.00
2018-02-05T06:59:44.978Z,620.00
2018-02-05T07:00:45.016Z,624.00
2018-02-05T07:01:45.033Z,624.00
2018-02-05T07:02:45.061Z,628.00
2018-02-05T07:03:45.090Z,632.00
2018-02-05T07:04:45.129Z,632.00
2018-02-05T07:05:45.143Z,636.00
2018-02-05T07:06:45.171Z,640.00
2018-02-05T07:07:45.201Z,640.00
2018-02-05T07:08:45.228Z,640.00
2018-02-05T07:09:45.255Z,648.00
2018-02-05T07:10:45.284Z,648.00
2018-02-05T07:11:45.310Z,648.00
2018-02-05T07:12:45.340Z,652.00
2018-02-05T07:13:45.365Z,652.00
2018-02-05T07:14:45.393Z,660.00
2018-02-05T07:15:45.422Z,656.00
2018-02-05T07:16:45.471Z,664.00
2018-02-05T07:17:45.477Z,664.00
2018-02-05T07:18:45.513Z,664.00
2018-02-05T07:19:45.537Z,668.00
2018-02-05T07:20:45.560Z,672.00
2018-02-05T07:21:45.589Z,672.00
2018-02-05T07:22:45.619Z,672.00
2018-02-05T07:23:45.644Z,676.00
2018-02-05T07:24:45.671Z,680.00
2018-02-05T07:25:45.698Z,680.00
2018-02-05T07:26:45.726Z,680.00
2018-02-05T07:27:45.754Z,684.00
2018-02-05T07:28:45.782Z,684.00
2018-02-05T07:29:45.810Z,688.00
2018-02-05T07:30:45.839Z,688.00
2018-02-05T07:31:45.865Z,692.00
2018-02-05T07:32:45.927Z,696.00
2018-02-05T07:33:45.952Z,696.00
2018-02-05T07:34:45.979Z,700.00
2018-02-05T07:35:45.977Z,700.00
2018-02-05T07:36:46.005Z,704.00
2018-02-05T07:37:46.072Z,704.00
2018-02-05T07:38:46.058Z,704.00
2018-02-05T07:39:46.087Z,708.00
2018-02-05T07:40:46.115Z,708.00
2018-02-05T07:41:46.143Z,708.00
2018-02-05T07:42:46.171Z,712.00
2018-02-05T07:43:46.201Z,712.00
2018-02-05T07:44:46.230Z,712.00
2018-02-05T07:45:46.253Z,716.00
2018-02-05T07:46:46.281Z,716.00
2018-02-05T07:47:46.321Z,716.00
2018-02-05T07:48:46.338Z,716.00
2018-02-05T07:49:46.366Z,720.00
2018-02-05T07:50:46.405Z,720.00
2018-02-05T07:51:46.421Z,724.00
2018-02-05T07:52:46.450Z,724.00
2018-02-05T07:53:46.508Z,728.00
2018-02-05T07:54:46.506Z,728.00
2018-02-05T07:55:46.533Z,732.00
2018-02-05T07:56:46.560Z,732.00
2018-02-05T07:57:46.588Z,740.00
2018-02-05T07:58:46.614Z,744.00
2018-02-05T07:59:46.644Z,740.00
2018-02-05T08:00:46.671Z,740.00
2018-02-05T08:01:46.698Z,744.00
2018-02-05T08:02:46.727Z,744.00
2018-02-05T08:03:46.753Z,744.00
2018-02-05T08:04:46.789Z,744.00
2018-02-05T08:05:46.809Z,748.00
2018-02-05T08:06:46.838Z,748.00
2018-02-05T08:07:46.865Z,752.00
2018-02-05T08:08:46.911Z,756.00
2018-02-05T08:09:46.923Z,756.00
2018-02-05T08:10:46.949Z,756.00
2018-02-05T08:11:46.976Z,756.00
2018-02-05T08:12:47.004Z,760.00
2018-02-05T08:13:47.032Z,760.00
2018-02-05T08:14:47.063Z,764.00
2018-02-05T08:15:47.088Z,764.00
2018-02-05T08:16:47.116Z,764.00
2018-02-05T08:17:47.143Z,772.00
2018-02-05T08:18:47.172Z,772.00
2018-02-05T08:19:47.199Z,776.00
2018-02-05T08:20:47.227Z,776.00
2018-02-05T08:21:47.273Z,780.00
2018-02-05T08:22:47.284Z,780.00
2018-02-05T08:23:47.311Z,784.00
2018-02-05T08:24:47.340Z,784.00
2018-02-05T08:25:47.366Z,788.00
2018-02-05T08:26:47.394Z,788.00
2018-02-05T08:27:47.422Z,792.00
2018-02-05T08:28:47.452Z,792.00
2018-02-05T08:29:47.477Z,796.00
2018-02-05T08:30:47.508Z,796.00
2018-02-05T08:31:47.547Z,796.00
2018-02-05T08:32:47.587Z,796.00
2018-02-05T08:33:47.589Z,796.00
2018-02-05T08:34:47.649Z,796.00
2018-02-05T08:35:47.656Z,796.00
2018-02-05T08:36:47.673Z,800.00
2018-02-05T08:37:47.700Z,796.00
2018-02-05T08:38:47.733Z,792.00
2018-02-05T08:39:47.757Z,792.00
2018-02-05T08:40:47.785Z,796.00
2018-02-05T08:41:47.828Z,792.00
2018-02-05T08:42:47.868Z,792.00
2018-02-05T08:43:47.887Z,788.00
2018-02-05T08:44:47.896Z,272.00
2018-02-05T08:45:47.927Z,272.00
2018-02-05T08:46:47.953Z,272.00
2018-02-05T08:47:48.024Z,276.00
2018-02-05T08:48:48.012Z,272.00
2018-02-05T08:49:48.047Z,272.00
2018-02-05T08:50:48.062Z,272.00
2018-02-05T08:51:48.090Z,276.00
2018-02-05T08:52:48.119Z,272.00
2018-02-05T08:53:48.145Z,276.00
2018-02-05T08:54:48.174Z,272.00
2018-02-05T08:55:48.206Z,276.00
2018-02-05T08:56:48.231Z,276.00
2018-02-05T08:57:48.257Z,276.00
2018-02-05T08:58:48.285Z,276.00
2018-02-05T08:59:48.313Z,276.00
2018-02-05T09:00:48.341Z,272.00
2018-02-05T09:01:48.368Z,276.00
2018-02-05T09:02:48.397Z,272.00
2018-02-05T09:03:48.424Z,272.00
2018-02-05T09:04:48.458Z,276.00
2018-02-05T09:05:48.480Z,272.00
2018-02-05T09:06:48.532Z,272.00
2018-02-05T09:07:48.536Z,272.00
2018-02-05T09:08:48.563Z,268.00
2018-02-05T09:09:48.591Z,268.00
2018-02-05T09:10:48.620Z,268.00
2018-02-05T09:11:48.646Z,272.00
2018-02-05T09:12:48.675Z,272.00
2018-02-05T09:13:48.705Z,268.00
2018-02-05T09:14:48.759Z,264.00
2018-02-05T09:15:48.757Z,268.00
2018-02-05T09:16:48.786Z,264.00
2018-02-05T09:17:48.842Z,264.00
2018-02-05T09:18:48.845Z,260.00
2018-02-05T09:19:48.869Z,260.00
2018-02-05T09:20:48.897Z,260.00
2018-02-05T09:21:48.925Z,264.00
2018-02-05T09:22:48.952Z,268.00
2018-02-05T09:23:48.981Z,268.00
2018-02-05T09:24:49.009Z,268.00
2018-02-05T09:25:49.038Z,268.00
2018-02-05T09:26:49.089Z,268.00
2018-02-05T09:27:49.098Z,268.00
2018-02-05T09:28:49.119Z,268.00
2018-02-05T09:29:49.165Z,272.00
2018-02-05T09:30:49.206Z,272.00
2018-02-05T09:31:49.204Z,268.00
2018-02-05T09:32:49.230Z,272.00
2018-02-05T09:33:49.257Z,272.00
2018-02-05T09:34:49.299Z,272.00
2018-02-05T09:35:49.317Z,272.00
2018-02-05T09:36:49.343Z,268.00
2018-02-05T09:37:49.370Z,268.00
2018-02-05T09:38:49.405Z,272.00
2018-02-05T09:39:49.426Z,272.00
2018-02-05T09:40:49.454Z,268.00
2018-02-05T09:41:49.484Z,268.00
2018-02-05T09:42:49.509Z,268.00
2018-02-05T09:43:49.536Z,264.00
2018-02-05T09:44:49.564Z,264.00
2018-02-05T09:45:49.591Z,264.00
2018-02-05T09:46:49.619Z,260.00
2018-02-05T09:47:49.654Z,260.00
2018-02-05T09:48:49.675Z,260.00
2018-02-05T09:49:49.705Z,260.00
2018-02-05T09:50:49.731Z,256.00
2018-02-05T09:51:49.759Z,260.00
2018-02-05T09:52:49.795Z,264.00
2018-02-05T09:53:49.819Z,260.00
2018-02-05T09:54:49.843Z,256.00
2018-02-05T09:55:49.869Z,256.00
2018-02-05T09:56:49.921Z,256.00
2018-02-05T09:57:49.925Z,252.00
2018-02-05T09:58:49.954Z,256.00
2018-02-05T09:59:49.982Z,256.00
2018-02-05T10:00:50.010Z,256.00
2018-02-05T10:01:50.092Z,256.00
2018-02-05T10:02:50.065Z,256.00
2018-02-05T10:03:50.096Z,256.00
2018-02-05T10:04:50.124Z,256.00
2018-02-05T10:05:50.148Z,260.00
2018-02-05T10:06:50.201Z,260.00
2018-02-05T10:07:50.205Z,256.00
2018-02-05T10:08:50.233Z,256.00
2018-02-05T10:09:50.259Z,256.00
2018-02-05T10:10:50.287Z,260.00
2018-02-05T10:11:50.316Z,256.00
2018-02-05T10:12:50.344Z,260.00
2018-02-05T10:13:50.375Z,256.00
2018-02-05T10:14:50.405Z,256.00
2018-02-05T10:15:50.430Z,260.00
2018-02-05T10:16:50.455Z,260.00
2018-02-05T10:17:50.482Z,256.00
2018-02-05T10:18:50.510Z,260.00
2018-02-05T10:19:50.568Z,256.00
2018-02-05T10:20:50.573Z,256.00
2018-02-05T10:21:50.594Z,264.00
2018-02-05T10:22:50.657Z,268.00
2018-02-05T10:23:50.649Z,268.00
2018-02-05T10:24:50.685Z,272.00
2018-02-05T10:25:50.739Z,272.00
2018-02-05T10:26:50.778Z,272.00
2018-02-05T10:27:50.761Z,276.00
2018-02-05T10:28:50.889Z,268.00
2018-02-05T10:29:50.818Z,276.00
2018-02-05T10:30:50.846Z,276.00
2018-02-05T10:31:50.875Z,276.00
2018-02-05T10:32:50.921Z,276.00
2018-02-05T10:33:50.961Z,276.00
2018-02-05T10:34:50.960Z,276.00
2018-02-05T10:35:50.984Z,276.00
2018-02-05T10:36:51.019Z,276.00
2018-02-05T10:37:51.048Z,280.00
2018-02-05T10:38:51.068Z,280.00
2018-02-05T10:39:51.096Z,280.00
2018-02-05T10:40:51.146Z,280.00
2018-02-05T10:41:51.152Z,280.00
2018-02-05T10:42:51.214Z,276.00
2018-02-05T10:43:51.208Z,280.00
2018-02-05T10:44:51.236Z,276.00
2018-02-05T10:45:51.264Z,276.00
2018-02-05T10:46:51.318Z,280.00
2018-02-05T10:47:51.319Z,280.00
2018-02-05T10:48:51.400Z,280.00
2018-02-05T10:49:51.375Z,280.00
2018-02-05T10:50:51.403Z,276.00
2018-02-05T10:51:51.436Z,276.00
2018-02-05T10:52:51.461Z,276.00
2018-02-05T10:53:51.513Z,272.00
2018-02-05T10:54:51.517Z,272.00
2018-02-05T10:55:51.545Z,272.00
2018-02-05T10:56:51.571Z,272.00
2018-02-05T10:57:51.601Z,272.00
2018-02-05T10:58:51.627Z,268.00
2018-02-05T10:59:51.657Z,268.00
2018-02-05T11:00:51.683Z,272.00
2018-02-05T11:01:51.710Z,268.00
2018-02-05T11:02:51.738Z,268.00
2018-02-05T11:03:51.766Z,268.00
2018-02-05T11:04:51.798Z,264.00
2018-02-05T11:05:51.822Z,256.00
2018-02-05T11:06:51.856Z,252.00
2018-02-05T11:07:51.882Z,252.00
2018-02-05T11:08:51.908Z,248.00
2018-02-05T11:09:51.934Z,244.00
2018-02-05T11:10:51.963Z,248.00
2018-02-05T11:11:51.992Z,244.00
2018-02-05T11:12:52.018Z,240.00
2018-02-05T11:13:52.045Z,240.00
2018-02-05T11:14:52.075Z,240.00
2018-02-05T11:15:52.102Z,244.00
2018-02-05T11:16:52.130Z,248.00
2018-02-05T11:17:52.183Z,244.00
2018-02-05T11:18:52.184Z,248.00
2018-02-05T11:19:52.215Z,248.00
2018-02-05T11:20:52.242Z,248.00
2018-02-05T11:21:52.269Z,244.00
2018-02-05T11:22:52.297Z,248.00
2018-02-05T11:23:52.326Z,248.00
2018-02-05T11:24:52.356Z,244.00
2018-02-05T11:25:52.381Z,244.00
2018-02-05T11:26:52.412Z,244.00
2018-02-05T11:27:52.437Z,244.00
2018-02-05T11:28:52.488Z,240.00
2018-02-05T11:29:52.495Z,240.00
2018-02-05T11:30:52.521Z,240.00
2018-02-05T11:31:52.549Z,240.00
2018-02-05T11:32:52.578Z,240.00
2018-02-05T11:33:52.606Z,240.00
2018-02-05T11:34:52.662Z,236.00
2018-02-05T11:35:52.663Z,240.00
2018-02-05T11:36:52.690Z,236.00
2018-02-05T11:37:52.733Z,240.00
2018-02-05T11:38:52.768Z,240.00
2018-02-05T11:39:52.775Z,240.00
2018-02-05T11:40:52.811Z,240.00
2018-02-05T11:41:52.831Z,236.00
2018-02-05T11:42:52.857Z,236.00
2018-02-05T11:43:52.887Z,236.00
2018-02-05T11:44:52.917Z,232.00
2018-02-05T11:45:52.942Z,236.00
2018-02-05T11:46:52.968Z,232.00
2018-02-05T11:47:52.997Z,228.00
2018-02-05T11:48:53.025Z,228.00
2018-02-05T11:49:53.053Z,228.00
2018-02-05T11:50:53.081Z,224.00
2018-02-05T11:51:53.109Z,228.00
2018-02-05T11:52:53.137Z,224.00
2018-02-05T11:53:53.179Z,228.00
2018-02-05T11:54:53.192Z,228.00
2018-02-05T11:55:53.220Z,224.00
2018-02-05T11:56:53.249Z,220.00
2018-02-05T11:57:53.277Z,220.00
2018-02-05T11:58:53.305Z,220.00
2018-02-05T11:59:53.366Z,216.00
2018-02-05T12:00:53.360Z,216.00
2018-02-05T12:01:53.388Z,220.00
2018-02-05T12:02:53.416Z,208.00
2018-02-05T12:03:53.447Z,208.00
2018-02-05T12:04:53.487Z,212.00
2018-02-05T12:05:53.499Z,212.00
2018-02-05T12:06:53.527Z,204.00
2018-02-05T12:07:53.555Z,212.00
2018-02-05T12:08:53.589Z,212.00
2018-02-05T12:09:53.611Z,212.00
2018-02-05T12:10:53.645Z,208.00
2018-02-05T12:11:53.668Z,208.00
2018-02-05T12:12:53.729Z,208.00
2018-02-05T12:13:53.723Z,204.00
2018-02-05T12:14:53.750Z,204.00
2018-02-05T12:15:53.785Z,204.00
2018-02-05T12:16:53.843Z,208.00
2018-02-05T12:17:53.834Z,204.00
2018-02-05T12:18:53.865Z,204.00
2018-02-05T12:19:53.893Z,204.00
2018-02-05T12:20:53.920Z,204.00
2018-02-05T12:21:53.970Z,204.00
2018-02-05T12:22:53.975Z,204.00
2018-02-05T12:23:54.004Z,204.00
2018-02-05T12:24:54.031Z,200.00
2018-02-05T12:25:54.799Z,204.00
2018-02-05T12:26:54.100Z,200.00
2018-02-05T12:27:54.118Z,200.00
2018-02-05T12:28:54.142Z,200.00
2018-02-05T12:29:54.169Z,204.00
2018-02-05T12:30:54.237Z,200.00
2018-02-05T12:31:54.226Z,204.00
2018-02-05T12:32:54.255Z,200.00
2018-02-05T12:33:54.289Z,196.00
2018-02-05T12:34:54.333Z,196.00
2018-02-05T12:35:54.342Z,196.00
2018-02-05T12:36:54.365Z,196.00
2018-02-05T12:37:54.393Z,196.00
2018-02-05T12:38:54.422Z,196.00
2018-02-05T12:39:54.451Z,204.00
2018-02-05T12:40:54.479Z,204.00
2018-02-05T12:41:54.519Z,200.00
2018-02-05T12:42:54.567Z,192.00
2018-02-05T12:43:54.560Z,192.00
2018-02-05T12:44:54.590Z,188.00
2018-02-05T12:45:54.617Z,188.00
2018-02-05T12:46:54.645Z,192.00
2018-02-05T12:47:54.673Z,188.00
2018-02-05T12:48:54.702Z,184.00